sensor_id;sensor_type;location;lat;lon;timestamp;temperature;humidity
42031;DHT22;27709;52.036;5.906;2022-12-18T00:01:44;-2.50;99.90
42031;DHT22;27709;52.036;5.906;2022-12-18T00:04:20;-2.60;99.90
42031;DHT22;27709;52.036;5.906;2022-12-18T00:06:46;-2.60;99.90
42031;DHT22;27709;52.036;5.906;2022-12-18T00:09:11;-2.60;99.90
42031;DHT22;27709;52.036;5.906;2022-12-18T00:11:39;-2.60;99.90
42031;DHT22;27709;52.036;5.906;2022-12-18T00:14:04;-2.70;99.90
42031;DHT22;27709;52.036;5.906;2022-12-18T00:16:30;-2.80;99.90
42031;DHT22;27709;52.036;5.906;2022-12-18T00:19:01;-2.80;99.90
42031;DHT22;27709;52.036;5.906;2022-12-18T00:21:28;-2.90;99.90
42031;DHT22;27709;52.036;5.906;2022-12-18T00:23:55;-2.90;99.90
42031;DHT22;27709;52.036;5.906;2022-12-18T00:26:27;-2.90;99.90
42031;DHT22;27709;52.036;5.906;2022-12-18T00:28:54;-2.90;99.90
42031;DHT22;27709;52.036;5.906;2022-12-18T00:31:23;-3.00;99.90
42031;DHT22;27709;52.036;5.906;2022-12-18T00:33:49;-3.00;99.90
42031;DHT22;27709;52.036;5.906;2022-12-18T00:36:17;-3.10;99.90
42031;DHT22;27709;52.036;5.906;2022-12-18T00:38:44;-3.10;99.90
42031;DHT22;27709;52.036;5.906;2022-12-18T00:41:11;-3.10;99.90
42031;DHT22;27709;52.036;5.906;2022-12-18T00:43:38;-3.10;99.90
42031;DHT22;27709;52.036;5.906;2022-12-18T00:46:04;-3.00;99.90
42031;DHT22;27709;52.036;5.906;2022-12-18T00:48:30;-3.10;99.90
42031;DHT22;27709;52.036;5.906;2022-12-18T00:50:57;-3.10;99.90
42031;DHT22;27709;52.036;5.906;2022-12-18T00:53:23;-3.10;99.90
42031;DHT22;27709;52.036;5.906;2022-12-18T00:55:49;-3.10;99.90
42031;DHT22;27709;52.036;5.906;2022-12-18T00:58:15;-3.10;99.90
42031;DHT22;27709;52.036;5.906;2022-12-18T01:00:42;-3.10;99.90
42031;DHT22;27709;52.036;5.906;2022-12-18T01:03:09;-3.10;99.90
42031;DHT22;27709;52.036;5.906;2022-12-18T01:05:39;-3.00;99.90
42031;DHT22;27709;52.036;5.906;2022-12-18T01:08:05;-3.10;99.90
42031;DHT22;27709;52.036;5.906;2022-12-18T01:10:30;-3.10;99.90
42031;DHT22;27709;52.036;5.906;2022-12-18T01:12:56;-3.10;99.90
42031;DHT22;27709;52.036;5.906;2022-12-18T01:15:31;-3.10;99.90
42031;DHT22;27709;52.036;5.906;2022-12-18T01:17:57;-3.00;99.90
42031;DHT22;27709;52.036;5.906;2022-12-18T01:20:23;-3.10;99.90
42031;DHT22;27709;52.036;5.906;2022-12-18T01:22:49;-3.20;99.90
42031;DHT22;27709;52.036;5.906;2022-12-18T01:25:15;-3.20;99.90
42031;DHT22;27709;52.036;5.906;2022-12-18T01:27:41;-3.20;99.90
42031;DHT22;27709;52.036;5.906;2022-12-18T01:30:07;-3.20;99.90
42031;DHT22;27709;52.036;5.906;2022-12-18T01:32:33;-3.20;99.90
42031;DHT22;27709;52.036;5.906;2022-12-18T01:35:00;-3.20;99.90
42031;DHT22;27709;52.036;5.906;2022-12-18T01:37:30;-3.20;99.90
42031;DHT22;27709;52.036;5.906;2022-12-18T01:40:01;-3.20;99.90
42031;DHT22;27709;52.036;5.906;2022-12-18T01:42:28;-3.30;99.90
42031;DHT22;27709;52.036;5.906;2022-12-18T01:48:09;-3.30;99.90
42031;DHT22;27709;52.036;5.906;2022-12-18T01:50:46;-3.30;99.90
42031;DHT22;27709;52.036;5.906;2022-12-18T01:53:22;-3.30;99.90
42031;DHT22;27709;52.036;5.906;2022-12-18T01:55:52;-3.30;99.90
42031;DHT22;27709;52.036;5.906;2022-12-18T01:58:21;-3.30;99.90
42031;DHT22;27709;52.036;5.906;2022-12-18T02:00:48;-3.20;99.90
42031;DHT22;27709;52.036;5.906;2022-12-18T02:03:14;-3.20;99.90
42031;DHT22;27709;52.036;5.906;2022-12-18T02:11:23;-3.30;99.90
42031;DHT22;27709;52.036;5.906;2022-12-18T02:14:10;-3.30;99.90
42031;DHT22;27709;52.036;5.906;2022-12-18T02:16:51;-3.30;99.90
42031;DHT22;27709;52.036;5.906;2022-12-18T02:24:54;-3.50;99.90
42031;DHT22;27709;52.036;5.906;2022-12-18T02:27:32;-3.50;99.90
42031;DHT22;27709;52.036;5.906;2022-12-18T02:30:03;-3.50;99.90
42031;DHT22;27709;52.036;5.906;2022-12-18T02:32:35;-3.60;99.90
42031;DHT22;27709;52.036;5.906;2022-12-18T02:35:15;-3.60;99.90
42031;DHT22;27709;52.036;5.906;2022-12-18T02:37:45;-3.70;99.90
42031;DHT22;27709;52.036;5.906;2022-12-18T02:40:15;-3.80;99.90
42031;DHT22;27709;52.036;5.906;2022-12-18T02:42:45;-3.90;99.90
42031;DHT22;27709;52.036;5.906;2022-12-18T02:45:16;-3.90;99.90
42031;DHT22;27709;52.036;5.906;2022-12-18T03:03:40;-4.30;99.90
42031;DHT22;27709;52.036;5.906;2022-12-18T03:06:20;-4.40;99.90
42031;DHT22;27709;52.036;5.906;2022-12-18T03:09:07;-4.50;99.90
42031;DHT22;27709;52.036;5.906;2022-12-18T03:11:39;-4.50;99.90
42031;DHT22;27709;52.036;5.906;2022-12-18T03:14:30;-4.60;99.90
42031;DHT22;27709;52.036;5.906;2022-12-18T03:17:02;-4.70;99.90
42031;DHT22;27709;52.036;5.906;2022-12-18T03:19:33;-4.70;99.90
42031;DHT22;27709;52.036;5.906;2022-12-18T03:22:28;-4.70;99.90
42031;DHT22;27709;52.036;5.906;2022-12-18T03:25:19;-4.80;99.90
42031;DHT22;27709;52.036;5.906;2022-12-18T03:28:13;-4.70;99.90
42031;DHT22;27709;52.036;5.906;2022-12-18T03:30:55;-4.80;99.90
42031;DHT22;27709;52.036;5.906;2022-12-18T03:33:52;-5.00;99.90
42031;DHT22;27709;52.036;5.906;2022-12-18T03:36:19;-5.10;99.90
42031;DHT22;27709;52.036;5.906;2022-12-18T03:38:44;-5.00;99.90
42031;DHT22;27709;52.036;5.906;2022-12-18T03:41:18;-5.00;99.90
42031;DHT22;27709;52.036;5.906;2022-12-18T03:44:09;-4.90;99.90
42031;DHT22;27709;52.036;5.906;2022-12-18T03:47:16;-4.80;99.90
42031;DHT22;27709;52.036;5.906;2022-12-18T03:52:49;-4.40;99.90
42031;DHT22;27709;52.036;5.906;2022-12-18T03:55:18;-4.30;99.90
42031;DHT22;27709;52.036;5.906;2022-12-18T03:57:45;-4.40;99.90
42031;DHT22;27709;52.036;5.906;2022-12-18T04:00:16;-4.40;99.90
42031;DHT22;27709;52.036;5.906;2022-12-18T04:02:49;-4.40;99.90
42031;DHT22;27709;52.036;5.906;2022-12-18T04:05:17;-4.30;99.90
42031;DHT22;27709;52.036;5.906;2022-12-18T04:07:46;-4.20;99.90
42031;DHT22;27709;52.036;5.906;2022-12-18T04:10:13;-4.20;99.90
42031;DHT22;27709;52.036;5.906;2022-12-18T04:12:39;-4.20;99.90
42031;DHT22;27709;52.036;5.906;2022-12-18T04:15:07;-4.20;99.90
42031;DHT22;27709;52.036;5.906;2022-12-18T04:17:32;-4.20;99.90
42031;DHT22;27709;52.036;5.906;2022-12-18T04:19:58;-4.10;99.90
42031;DHT22;27709;52.036;5.906;2022-12-18T04:22:24;-4.10;99.90
42031;DHT22;27709;52.036;5.906;2022-12-18T04:24:49;-4.10;99.90
42031;DHT22;27709;52.036;5.906;2022-12-18T04:27:15;-4.00;99.90
42031;DHT22;27709;52.036;5.906;2022-12-18T04:29:44;-4.00;99.90
42031;DHT22;27709;52.036;5.906;2022-12-18T04:32:10;-4.00;99.90
42031;DHT22;27709;52.036;5.906;2022-12-18T04:34:35;-3.90;99.90
42031;DHT22;27709;52.036;5.906;2022-12-18T04:37:01;-3.90;99.90
42031;DHT22;27709;52.036;5.906;2022-12-18T04:39:27;-3.80;99.90
42031;DHT22;27709;52.036;5.906;2022-12-18T04:41:52;-3.70;99.90
42031;DHT22;27709;52.036;5.906;2022-12-18T04:44:18;-3.70;99.90
42031;DHT22;27709;52.036;5.906;2022-12-18T04:46:43;-3.60;99.90
42031;DHT22;27709;52.036;5.906;2022-12-18T04:49:09;-3.50;99.90
42031;DHT22;27709;52.036;5.906;2022-12-18T04:51:36;-3.40;99.90
42031;DHT22;27709;52.036;5.906;2022-12-18T04:54:02;-3.40;99.90
42031;DHT22;27709;52.036;5.906;2022-12-18T04:56:28;-3.40;99.90
42031;DHT22;27709;52.036;5.906;2022-12-18T04:58:53;-3.30;99.90
42031;DHT22;27709;52.036;5.906;2022-12-18T05:01:19;-3.30;99.90
42031;DHT22;27709;52.036;5.906;2022-12-18T05:03:44;-3.30;99.90
42031;DHT22;27709;52.036;5.906;2022-12-18T05:06:10;-3.30;99.90
42031;DHT22;27709;52.036;5.906;2022-12-18T05:08:36;-3.20;99.90
42031;DHT22;27709;52.036;5.906;2022-12-18T05:11:10;-3.20;99.90
42031;DHT22;27709;52.036;5.906;2022-12-18T05:13:36;-3.10;99.90
42031;DHT22;27709;52.036;5.906;2022-12-18T05:16:03;-3.10;99.90
42031;DHT22;27709;52.036;5.906;2022-12-18T05:18:30;-3.10;99.90
42031;DHT22;27709;52.036;5.906;2022-12-18T05:20:55;-3.10;99.90
42031;DHT22;27709;52.036;5.906;2022-12-18T05:23:22;-3.00;99.90
42031;DHT22;27709;52.036;5.906;2022-12-18T05:25:55;-3.00;99.90
42031;DHT22;27709;52.036;5.906;2022-12-18T05:28:23;-2.90;99.90
42031;DHT22;27709;52.036;5.906;2022-12-18T05:30:53;-2.90;99.90
42031;DHT22;27709;52.036;5.906;2022-12-18T05:33:20;-3.00;99.90
42031;DHT22;27709;52.036;5.906;2022-12-18T05:35:51;-3.00;99.90
42031;DHT22;27709;52.036;5.906;2022-12-18T05:38:18;-3.00;99.90
42031;DHT22;27709;52.036;5.906;2022-12-18T05:40:43;-3.00;99.90
42031;DHT22;27709;52.036;5.906;2022-12-18T05:43:09;-3.00;99.90
42031;DHT22;27709;52.036;5.906;2022-12-18T05:45:39;-3.10;99.90
42031;DHT22;27709;52.036;5.906;2022-12-18T05:48:04;-3.10;99.90
42031;DHT22;27709;52.036;5.906;2022-12-18T05:50:30;-3.10;99.90
42031;DHT22;27709;52.036;5.906;2022-12-18T05:52:56;-3.10;99.90
42031;DHT22;27709;52.036;5.906;2022-12-18T05:55:21;-3.10;99.90
42031;DHT22;27709;52.036;5.906;2022-12-18T05:57:47;-3.10;99.90
42031;DHT22;27709;52.036;5.906;2022-12-18T06:00:13;-3.10;99.90
42031;DHT22;27709;52.036;5.906;2022-12-18T06:02:39;-3.10;99.90
42031;DHT22;27709;52.036;5.906;2022-12-18T06:05:05;-3.10;99.90
42031;DHT22;27709;52.036;5.906;2022-12-18T06:07:30;-3.20;99.90
42031;DHT22;27709;52.036;5.906;2022-12-18T06:09:56;-3.30;99.90
42031;DHT22;27709;52.036;5.906;2022-12-18T06:12:21;-3.30;99.90
42031;DHT22;27709;52.036;5.906;2022-12-18T06:14:47;-3.50;99.90
42031;DHT22;27709;52.036;5.906;2022-12-18T06:17:12;-3.50;99.90
42031;DHT22;27709;52.036;5.906;2022-12-18T06:19:38;-3.50;99.90
42031;DHT22;27709;52.036;5.906;2022-12-18T06:22:03;-3.60;99.90
42031;DHT22;27709;52.036;5.906;2022-12-18T06:24:30;-3.60;99.90
42031;DHT22;27709;52.036;5.906;2022-12-18T06:26:55;-3.60;99.90
42031;DHT22;27709;52.036;5.906;2022-12-18T06:29:22;-3.70;99.90
42031;DHT22;27709;52.036;5.906;2022-12-18T06:31:48;-3.70;99.90
42031;DHT22;27709;52.036;5.906;2022-12-18T06:34:13;-3.60;99.90
42031;DHT22;27709;52.036;5.906;2022-12-18T06:36:39;-3.60;99.90
42031;DHT22;27709;52.036;5.906;2022-12-18T06:39:04;-3.50;99.90
42031;DHT22;27709;52.036;5.906;2022-12-18T06:41:30;-3.60;99.90
42031;DHT22;27709;52.036;5.906;2022-12-18T06:43:57;-3.70;99.90
42031;DHT22;27709;52.036;5.906;2022-12-18T06:46:22;-3.80;99.90
42031;DHT22;27709;52.036;5.906;2022-12-18T06:48:49;-3.80;99.90
42031;DHT22;27709;52.036;5.906;2022-12-18T06:51:19;-3.70;99.90
42031;DHT22;27709;52.036;5.906;2022-12-18T06:53:45;-3.70;99.90
42031;DHT22;27709;52.036;5.906;2022-12-18T06:56:11;-3.60;99.90
42031;DHT22;27709;52.036;5.906;2022-12-18T06:58:37;-3.50;99.90
42031;DHT22;27709;52.036;5.906;2022-12-18T07:01:05;-3.50;99.90
42031;DHT22;27709;52.036;5.906;2022-12-18T07:03:31;-3.40;99.90
42031;DHT22;27709;52.036;5.906;2022-12-18T07:05:57;-3.30;99.90
42031;DHT22;27709;52.036;5.906;2022-12-18T07:08:22;-3.30;99.90
42031;DHT22;27709;52.036;5.906;2022-12-18T07:10:48;-3.30;99.90
42031;DHT22;27709;52.036;5.906;2022-12-18T07:13:15;-3.20;99.90
42031;DHT22;27709;52.036;5.906;2022-12-18T07:15:40;-3.20;99.90
42031;DHT22;27709;52.036;5.906;2022-12-18T07:18:06;-3.10;99.90
42031;DHT22;27709;52.036;5.906;2022-12-18T07:20:31;-3.20;99.90
42031;DHT22;27709;52.036;5.906;2022-12-18T07:22:57;-3.20;99.90
42031;DHT22;27709;52.036;5.906;2022-12-18T07:25:23;-3.30;99.90
42031;DHT22;27709;52.036;5.906;2022-12-18T07:27:48;-3.30;99.90
42031;DHT22;27709;52.036;5.906;2022-12-18T07:30:14;-3.30;99.90
42031;DHT22;27709;52.036;5.906;2022-12-18T07:32:41;-3.30;99.90
42031;DHT22;27709;52.036;5.906;2022-12-18T07:35:06;-3.30;99.90
42031;DHT22;27709;52.036;5.906;2022-12-18T07:37:32;-3.30;99.90
42031;DHT22;27709;52.036;5.906;2022-12-18T07:39:57;-3.30;99.90
42031;DHT22;27709;52.036;5.906;2022-12-18T07:42:23;-3.20;99.90
42031;DHT22;27709;52.036;5.906;2022-12-18T07:45:00;-3.20;99.90
42031;DHT22;27709;52.036;5.906;2022-12-18T07:47:27;-3.20;99.90
42031;DHT22;27709;52.036;5.906;2022-12-18T07:49:53;-3.20;99.90
42031;DHT22;27709;52.036;5.906;2022-12-18T07:52:18;-3.20;99.90
42031;DHT22;27709;52.036;5.906;2022-12-18T07:54:45;-3.20;99.90
42031;DHT22;27709;52.036;5.906;2022-12-18T07:57:11;-3.20;99.90
42031;DHT22;27709;52.036;5.906;2022-12-18T07:59:36;-3.20;99.90
42031;DHT22;27709;52.036;5.906;2022-12-18T08:02:02;-3.10;99.90
42031;DHT22;27709;52.036;5.906;2022-12-18T08:04:28;-3.10;99.90
42031;DHT22;27709;52.036;5.906;2022-12-18T08:06:54;-3.10;99.90
42031;DHT22;27709;52.036;5.906;2022-12-18T08:09:19;-3.00;99.90
42031;DHT22;27709;52.036;5.906;2022-12-18T08:11:45;-3.00;99.90
42031;DHT22;27709;52.036;5.906;2022-12-18T08:14:10;-2.90;99.90
42031;DHT22;27709;52.036;5.906;2022-12-18T08:16:36;-2.80;99.90
42031;DHT22;27709;52.036;5.906;2022-12-18T08:19:02;-2.80;99.90
42031;DHT22;27709;52.036;5.906;2022-12-18T08:21:29;-2.70;99.90
42031;DHT22;27709;52.036;5.906;2022-12-18T08:23:58;-2.70;99.90
42031;DHT22;27709;52.036;5.906;2022-12-18T08:26:26;-2.60;99.90
42031;DHT22;27709;52.036;5.906;2022-12-18T08:28:54;-2.50;99.90
42031;DHT22;27709;52.036;5.906;2022-12-18T08:31:20;-2.40;99.90
42031;DHT22;27709;52.036;5.906;2022-12-18T08:33:49;-2.40;99.90
42031;DHT22;27709;52.036;5.906;2022-12-18T08:36:15;-2.30;99.90
42031;DHT22;27709;52.036;5.906;2022-12-18T08:38:40;-2.30;99.90
42031;DHT22;27709;52.036;5.906;2022-12-18T08:41:09;-2.30;99.90
42031;DHT22;27709;52.036;5.906;2022-12-18T08:43:37;-2.20;99.90
42031;DHT22;27709;52.036;5.906;2022-12-18T08:46:24;-2.10;99.90
42031;DHT22;27709;52.036;5.906;2022-12-18T08:48:57;-2.10;99.90
42031;DHT22;27709;52.036;5.906;2022-12-18T08:51:22;-2.10;99.90
42031;DHT22;27709;52.036;5.906;2022-12-18T08:53:48;-2.10;99.90
42031;DHT22;27709;52.036;5.906;2022-12-18T08:56:14;-2.00;99.90
42031;DHT22;27709;52.036;5.906;2022-12-18T08:58:42;-2.00;99.90
42031;DHT22;27709;52.036;5.906;2022-12-18T09:01:10;-2.00;99.90
42031;DHT22;27709;52.036;5.906;2022-12-18T09:03:36;-1.90;99.90
42031;DHT22;27709;52.036;5.906;2022-12-18T09:06:02;-1.90;99.90
42031;DHT22;27709;52.036;5.906;2022-12-18T09:08:28;-1.80;99.90
42031;DHT22;27709;52.036;5.906;2022-12-18T09:10:54;-1.80;99.90
42031;DHT22;27709;52.036;5.906;2022-12-18T09:13:20;-1.80;99.90
42031;DHT22;27709;52.036;5.906;2022-12-18T09:15:48;-1.80;99.90
42031;DHT22;27709;52.036;5.906;2022-12-18T09:18:15;-1.70;99.90
42031;DHT22;27709;52.036;5.906;2022-12-18T09:20:42;-1.60;99.90
42031;DHT22;27709;52.036;5.906;2022-12-18T09:23:08;-1.60;99.90
42031;DHT22;27709;52.036;5.906;2022-12-18T09:25:36;-1.50;99.90
42031;DHT22;27709;52.036;5.906;2022-12-18T09:28:04;-1.50;99.90
42031;DHT22;27709;52.036;5.906;2022-12-18T09:30:30;-1.40;99.90
42031;DHT22;27709;52.036;5.906;2022-12-18T09:32:56;-1.40;99.90
42031;DHT22;27709;52.036;5.906;2022-12-18T09:35:21;-1.30;99.90
42031;DHT22;27709;52.036;5.906;2022-12-18T09:37:47;-1.20;99.90
42031;DHT22;27709;52.036;5.906;2022-12-18T09:40:15;-1.10;99.90
42031;DHT22;27709;52.036;5.906;2022-12-18T09:42:46;-1.10;99.90
42031;DHT22;27709;52.036;5.906;2022-12-18T09:45:15;-1.00;99.90
42031;DHT22;27709;52.036;5.906;2022-12-18T09:47:43;-0.90;99.90
42031;DHT22;27709;52.036;5.906;2022-12-18T09:52:49;-0.90;99.90
42031;DHT22;27709;52.036;5.906;2022-12-18T09:55:37;-0.90;99.90
42031;DHT22;27709;52.036;5.906;2022-12-18T09:58:28;-0.90;99.90
42031;DHT22;27709;52.036;5.906;2022-12-18T10:00:56;-0.80;99.90
42031;DHT22;27709;52.036;5.906;2022-12-18T10:03:22;-0.80;99.90
42031;DHT22;27709;52.036;5.906;2022-12-18T10:14:19;-0.80;99.90
42031;DHT22;27709;52.036;5.906;2022-12-18T10:17:01;-0.80;99.90
42031;DHT22;27709;52.036;5.906;2022-12-18T10:27:42;-0.60;99.90
42031;DHT22;27709;52.036;5.906;2022-12-18T10:30:18;-0.50;99.90
42031;DHT22;27709;52.036;5.906;2022-12-18T10:32:44;-0.50;99.90
42031;DHT22;27709;52.036;5.906;2022-12-18T10:35:22;-0.40;99.90
42031;DHT22;27709;52.036;5.906;2022-12-18T10:38:05;-0.40;99.90
42031;DHT22;27709;52.036;5.906;2022-12-18T10:40:31;-0.40;99.90
42031;DHT22;27709;52.036;5.906;2022-12-18T10:43:13;-0.30;99.90
42031;DHT22;27709;52.036;5.906;2022-12-18T10:45:40;-0.30;99.90
42031;DHT22;27709;52.036;5.906;2022-12-18T10:48:21;-0.20;99.90
42031;DHT22;27709;52.036;5.906;2022-12-18T10:50:49;-0.20;99.90
42031;DHT22;27709;52.036;5.906;2022-12-18T10:53:22;-0.20;99.90
42031;DHT22;27709;52.036;5.906;2022-12-18T10:55:48;-0.20;99.90
42031;DHT22;27709;52.036;5.906;2022-12-18T10:58:26;-0.10;99.90
42031;DHT22;27709;52.036;5.906;2022-12-18T11:01:13;-0.10;99.90
42031;DHT22;27709;52.036;5.906;2022-12-18T11:06:19;0.00;99.90
42031;DHT22;27709;52.036;5.906;2022-12-18T11:09:20;0.00;99.90
42031;DHT22;27709;52.036;5.906;2022-12-18T11:11:54;0.10;99.90
42031;DHT22;27709;52.036;5.906;2022-12-18T11:14:29;0.10;99.90
42031;DHT22;27709;52.036;5.906;2022-12-18T11:16:57;0.20;99.90
42031;DHT22;27709;52.036;5.906;2022-12-18T11:21:56;0.20;99.90
42031;DHT22;27709;52.036;5.906;2022-12-18T11:24:30;0.20;99.90
42031;DHT22;27709;52.036;5.906;2022-12-18T11:27:03;0.30;99.90
42031;DHT22;27709;52.036;5.906;2022-12-18T11:29:36;0.30;99.90
42031;DHT22;27709;52.036;5.906;2022-12-18T11:32:32;0.30;99.90
42031;DHT22;27709;52.036;5.906;2022-12-18T11:37:41;0.40;99.90
42031;DHT22;27709;52.036;5.906;2022-12-18T11:40:17;0.40;99.90
42031;DHT22;27709;52.036;5.906;2022-12-18T11:42:52;0.40;99.90
42031;DHT22;27709;52.036;5.906;2022-12-18T11:45:33;0.40;99.90
42031;DHT22;27709;52.036;5.906;2022-12-18T11:48:21;0.50;99.90
42031;DHT22;27709;52.036;5.906;2022-12-18T11:50:53;0.50;99.90
42031;DHT22;27709;52.036;5.906;2022-12-18T11:53:19;0.50;99.90
42031;DHT22;27709;52.036;5.906;2022-12-18T11:58:34;0.50;99.90
42031;DHT22;27709;52.036;5.906;2022-12-18T12:03:55;0.60;99.90
42031;DHT22;27709;52.036;5.906;2022-12-18T12:09:24;0.70;99.90
42031;DHT22;27709;52.036;5.906;2022-12-18T12:12:06;0.70;99.90
42031;DHT22;27709;52.036;5.906;2022-12-18T12:17:37;0.70;99.90
42031;DHT22;27709;52.036;5.906;2022-12-18T12:20:22;0.70;99.90
42031;DHT22;27709;52.036;5.906;2022-12-18T12:22:54;0.70;99.90
42031;DHT22;27709;52.036;5.906;2022-12-18T12:25:52;0.70;99.90
42031;DHT22;27709;52.036;5.906;2022-12-18T12:28:33;0.80;99.90
42031;DHT22;27709;52.036;5.906;2022-12-18T12:39:27;0.90;99.90
42031;DHT22;27709;52.036;5.906;2022-12-18T12:41:54;0.90;99.90
42031;DHT22;27709;52.036;5.906;2022-12-18T12:44:50;0.80;99.90
42031;DHT22;27709;52.036;5.906;2022-12-18T12:47:25;0.90;99.90
42031;DHT22;27709;52.036;5.906;2022-12-18T12:49:52;0.80;99.90
42031;DHT22;27709;52.036;5.906;2022-12-18T12:52:34;0.90;99.90
42031;DHT22;27709;52.036;5.906;2022-12-18T12:55:04;0.90;99.90
42031;DHT22;27709;52.036;5.906;2022-12-18T12:57:34;0.90;99.90
42031;DHT22;27709;52.036;5.906;2022-12-18T13:00:12;0.80;99.90
42031;DHT22;27709;52.036;5.906;2022-12-18T13:05:43;0.90;99.90
42031;DHT22;27709;52.036;5.906;2022-12-18T13:08:21;0.90;99.90
42031;DHT22;27709;52.036;5.906;2022-12-18T13:10:47;0.90;99.90
42031;DHT22;27709;52.036;5.906;2022-12-18T13:13:14;0.90;99.90
42031;DHT22;27709;52.036;5.906;2022-12-18T13:18:28;0.90;99.90
42031;DHT22;27709;52.036;5.906;2022-12-18T13:23:29;0.90;99.90
42031;DHT22;27709;52.036;5.906;2022-12-18T13:31:11;1.00;99.90
42031;DHT22;27709;52.036;5.906;2022-12-18T13:33:41;1.00;99.90
42031;DHT22;27709;52.036;5.906;2022-12-18T13:41:40;1.00;99.90
42031;DHT22;27709;52.036;5.906;2022-12-18T13:44:12;1.00;99.90
42031;DHT22;27709;52.036;5.906;2022-12-18T13:46:42;1.00;99.90
42031;DHT22;27709;52.036;5.906;2022-12-18T13:51:51;1.00;99.90
42031;DHT22;27709;52.036;5.906;2022-12-18T13:56:47;1.00;99.90
42031;DHT22;27709;52.036;5.906;2022-12-18T13:59:21;1.00;99.90
42031;DHT22;27709;52.036;5.906;2022-12-18T14:01:59;1.00;99.90
42031;DHT22;27709;52.036;5.906;2022-12-18T14:04:30;1.00;99.90
42031;DHT22;27709;52.036;5.906;2022-12-18T14:09:49;1.00;99.90
42031;DHT22;27709;52.036;5.906;2022-12-18T14:12:17;1.00;99.90
42031;DHT22;27709;52.036;5.906;2022-12-18T14:15:03;0.90;99.90
42031;DHT22;27709;52.036;5.906;2022-12-18T14:17:31;0.90;99.90
42031;DHT22;27709;52.036;5.906;2022-12-18T14:19:57;0.90;99.90
42031;DHT22;27709;52.036;5.906;2022-12-18T14:22:26;0.90;99.90
42031;DHT22;27709;52.036;5.906;2022-12-18T14:25:14;0.90;99.90
42031;DHT22;27709;52.036;5.906;2022-12-18T14:28:02;1.00;99.90
42031;DHT22;27709;52.036;5.906;2022-12-18T14:30:31;1.00;99.90
42031;DHT22;27709;52.036;5.906;2022-12-18T14:33:18;1.00;99.90
42031;DHT22;27709;52.036;5.906;2022-12-18T14:35:58;1.00;99.90
42031;DHT22;27709;52.036;5.906;2022-12-18T14:38:29;1.00;99.90
42031;DHT22;27709;52.036;5.906;2022-12-18T14:41:04;1.00;99.90
42031;DHT22;27709;52.036;5.906;2022-12-18T14:43:33;1.00;99.90
42031;DHT22;27709;52.036;5.906;2022-12-18T14:45:59;1.00;99.90
42031;DHT22;27709;52.036;5.906;2022-12-18T14:48:43;1.00;99.90
42031;DHT22;27709;52.036;5.906;2022-12-18T14:53:41;0.90;99.90
42031;DHT22;27709;52.036;5.906;2022-12-18T14:58:48;0.90;99.90
42031;DHT22;27709;52.036;5.906;2022-12-18T15:01:22;0.90;99.90
42031;DHT22;27709;52.036;5.906;2022-12-18T15:03:48;0.90;99.90
42031;DHT22;27709;52.036;5.906;2022-12-18T15:06:25;0.90;99.90
42031;DHT22;27709;52.036;5.906;2022-12-18T15:08:51;0.90;99.90
42031;DHT22;27709;52.036;5.906;2022-12-18T15:13:52;0.80;99.90
42031;DHT22;27709;52.036;5.906;2022-12-18T15:16:17;0.90;99.90
42031;DHT22;27709;52.036;5.906;2022-12-18T15:18:43;0.90;99.90
42031;DHT22;27709;52.036;5.906;2022-12-18T15:21:11;0.90;99.90
42031;DHT22;27709;52.036;5.906;2022-12-18T15:26:12;0.90;99.90
42031;DHT22;27709;52.036;5.906;2022-12-18T15:28:55;0.80;99.90
42031;DHT22;27709;52.036;5.906;2022-12-18T15:31:33;0.80;99.90
42031;DHT22;27709;52.036;5.906;2022-12-18T15:34:13;0.80;99.90
42031;DHT22;27709;52.036;5.906;2022-12-18T15:36:39;0.80;99.90
42031;DHT22;27709;52.036;5.906;2022-12-18T15:39:05;0.80;99.90
42031;DHT22;27709;52.036;5.906;2022-12-18T15:41:32;0.80;99.90
42031;DHT22;27709;52.036;5.906;2022-12-18T15:43:59;0.80;99.90
42031;DHT22;27709;52.036;5.906;2022-12-18T15:46:25;0.80;99.90
42031;DHT22;27709;52.036;5.906;2022-12-18T15:48:56;0.80;99.90
42031;DHT22;27709;52.036;5.906;2022-12-18T15:51:28;0.80;99.90
42031;DHT22;27709;52.036;5.906;2022-12-18T15:53:56;0.80;99.90
42031;DHT22;27709;52.036;5.906;2022-12-18T15:56:22;0.80;99.90
42031;DHT22;27709;52.036;5.906;2022-12-18T15:59:14;0.80;99.90
42031;DHT22;27709;52.036;5.906;2022-12-18T16:01:41;0.80;99.90
42031;DHT22;27709;52.036;5.906;2022-12-18T16:04:11;0.80;99.90
42031;DHT22;27709;52.036;5.906;2022-12-18T16:06:37;0.80;99.90
42031;DHT22;27709;52.036;5.906;2022-12-18T16:09:03;0.80;99.90
42031;DHT22;27709;52.036;5.906;2022-12-18T16:11:30;0.80;99.90
42031;DHT22;27709;52.036;5.906;2022-12-18T16:16:48;0.70;99.90
42031;DHT22;27709;52.036;5.906;2022-12-18T16:19:14;0.70;99.90
42031;DHT22;27709;52.036;5.906;2022-12-18T16:21:39;0.70;99.90
42031;DHT22;27709;52.036;5.906;2022-12-18T16:24:07;0.70;99.90
42031;DHT22;27709;52.036;5.906;2022-12-18T16:26:34;0.70;99.90
42031;DHT22;27709;52.036;5.906;2022-12-18T16:29:00;0.70;99.90
42031;DHT22;27709;52.036;5.906;2022-12-18T16:31:25;0.70;99.90
42031;DHT22;27709;52.036;5.906;2022-12-18T16:34:13;0.70;99.90
42031;DHT22;27709;52.036;5.906;2022-12-18T16:36:39;0.70;99.90
42031;DHT22;27709;52.036;5.906;2022-12-18T16:39:04;0.70;99.90
42031;DHT22;27709;52.036;5.906;2022-12-18T16:41:30;0.70;99.90
42031;DHT22;27709;52.036;5.906;2022-12-18T16:43:59;0.70;99.90
42031;DHT22;27709;52.036;5.906;2022-12-18T16:46:25;0.70;99.90
42031;DHT22;27709;52.036;5.906;2022-12-18T16:48:50;0.70;99.90
42031;DHT22;27709;52.036;5.906;2022-12-18T16:51:16;0.70;99.90
42031;DHT22;27709;52.036;5.906;2022-12-18T16:53:41;0.60;99.90
42031;DHT22;27709;52.036;5.906;2022-12-18T16:56:07;0.60;99.90
42031;DHT22;27709;52.036;5.906;2022-12-18T16:58:34;0.60;99.90
42031;DHT22;27709;52.036;5.906;2022-12-18T17:01:06;0.60;99.90
42031;DHT22;27709;52.036;5.906;2022-12-18T17:03:31;0.60;99.90
42031;DHT22;27709;52.036;5.906;2022-12-18T17:06:02;0.60;99.90
42031;DHT22;27709;52.036;5.906;2022-12-18T17:08:28;0.60;99.90
42031;DHT22;27709;52.036;5.906;2022-12-18T17:10:53;0.60;99.90
42031;DHT22;27709;52.036;5.906;2022-12-18T17:13:19;0.60;99.90
42031;DHT22;27709;52.036;5.906;2022-12-18T17:15:44;0.60;99.90
42031;DHT22;27709;52.036;5.906;2022-12-18T17:18:13;0.60;99.90
42031;DHT22;27709;52.036;5.906;2022-12-18T17:20:39;0.60;99.90
42031;DHT22;27709;52.036;5.906;2022-12-18T17:23:07;0.60;99.90
42031;DHT22;27709;52.036;5.906;2022-12-18T17:25:32;0.60;99.90
42031;DHT22;27709;52.036;5.906;2022-12-18T17:27:58;0.60;99.90
42031;DHT22;27709;52.036;5.906;2022-12-18T17:30:23;0.60;99.90
42031;DHT22;27709;52.036;5.906;2022-12-18T17:32:49;0.60;99.90
42031;DHT22;27709;52.036;5.906;2022-12-18T17:35:14;0.60;99.90
42031;DHT22;27709;52.036;5.906;2022-12-18T17:37:40;0.60;99.90
42031;DHT22;27709;52.036;5.906;2022-12-18T17:40:06;0.50;99.90
42031;DHT22;27709;52.036;5.906;2022-12-18T17:42:32;0.50;99.90
42031;DHT22;27709;52.036;5.906;2022-12-18T17:44:57;0.50;99.90
42031;DHT22;27709;52.036;5.906;2022-12-18T17:47:23;0.50;99.90
42031;DHT22;27709;52.036;5.906;2022-12-18T17:49:48;0.50;99.90
42031;DHT22;27709;52.036;5.906;2022-12-18T17:52:14;0.60;99.90
42031;DHT22;27709;52.036;5.906;2022-12-18T17:54:39;0.60;99.90